Date,TemperatureHighF,TemperatureAvgF,TemperatureLowF,DewpointHighF,DewpointAvgF,DewpointLowF,HumidityHigh,HumidityAvg,HumidityLow,PressureMaxIn,PressureMinIn,WindSpeedMaxMPH,WindSpeedAvgMPH,GustSpeedMaxMPH,PrecipitationSumIn
2013-2-1,49,43,39,44,41,38,97,94,80,30.37,30.26,4,0,5,0.00
2013-2-2,43,39,36,41,38,35,98,96,92,30.37,30.18,5,0,5,0.00
2013-2-3,42,41,39,40,39,38,97,94,91,30.23,30.08,6,0,6,0.05
2013-2-4,46,43,40,42,40,38,96,91,79,30.09,29.75,16,2,16,0.04
2013-2-5,46,44,42,42,41,39,96,88,79,29.77,29.67,22,6,22,0.11
2013-2-6,48,44,42,41,40,38,92,86,69,29.91,29.65,26,6,27,0.11
2013-2-7,48,43,37,41,38,35,94,82,67,30.15,29.64,28,5,35,0.10
2013-2-8,41,38,34,38,36,33,96,92,84,30.25,30.15,6,1,7,0.00
2013-2-9,41,39,38,39,37,36,96,93,86,30.31,30.21,5,0,5,0.03
2013-2-10,42,40,39,40,38,36,95,91,86,30.33,30.26,5,1,6,0.00
2013-2-11,44,41,39,41,39,37,96,93,88,30.28,30.25,7,1,7,0.00
2013-2-12,46,42,40,43,40,39,95,91,81,30.30,30.14,13,1,13,0.01
2013-2-13,50,44,40,42,39,38,92,83,67,30.41,30.17,14,1,15,0.00
2013-2-14,45,42,40,43,40,38,96,93,87,30.54,30.41,8,1,8,0.20
2013-2-15,50,44,41,44,41,40,97,91,75,30.54,30.11,6,1,6,0.00
2013-2-16,47,43,40,44,41,36,96,90,79,30.11,30.00,12,2,13,0.03
2013-2-17,44,40,37,39,36,33,91,84,76,30.15,30.04,14,2,14,0.00
2013-2-18,41,39,38,37,36,34,94,88,81,30.04,29.70,12,2,14,0.11
2013-2-19,49,42,36,41,36,34,93,81,63,29.92,29.70,16,2,16,0.00
2013-2-20,41,39,35,38,36,33,93,89,81,29.95,29.91,8,1,8,0.04
2013-2-21,46,42,39,41,38,36,92,87,79,29.93,29.86,21,3,21,0.06
2013-2-22,48,41,36,43,37,32,94,85,65,29.90,29.48,28,6,28,0.39
2013-2-23,49,42,36,37,33,27,91,72,45,30.24,29.72,19,3,20,0.00
2013-2-24,43,41,38,39,37,34,93,87,79,30.25,29.74,29,6,30,0.11
2013-2-25,49,43,38,40,35,27,93,75,48,30.17,29.63,28,6,29,0.13
2013-2-26,44,39,36,38,35,31,91,85,75,30.22,30.05,24,5,24,0.13
2013-2-27,45,40,35,39,37,34,96,88,69,30.24,30.08,10,1,19,0.03
2013-2-28,47,40,36,45,38,34,95,92,84,30.22,30.11,15,2,16,0.47